createdAt,value
2023-05-02T00:00:14.871Z,8.64
2023-05-02T00:02:41.834Z,8.63
2023-05-02T00:05:08.866Z,8.59
2023-05-02T00:07:36.283Z,8.56
2023-05-02T00:10:03.556Z,8.53
2023-05-02T00:12:30.576Z,8.46
2023-05-02T00:14:57.513Z,8.40
2023-05-02T00:17:24.412Z,8.35
2023-05-02T00:19:51.417Z,8.31
2023-05-02T00:22:18.254Z,8.27
2023-05-02T00:24:45.198Z,8.25
2023-05-02T00:27:12.098Z,8.22
2023-05-02T00:29:39.263Z,8.18
2023-05-02T00:32:06.334Z,8.14
2023-05-02T00:34:33.589Z,8.11
2023-05-02T00:37:00.559Z,8.08
2023-05-02T00:39:27.478Z,8.07
2023-05-02T00:42:01.657Z,8.06
2023-05-02T00:44:28.595Z,8.02
2023-05-02T00:46:56.107Z,7.95
2023-05-02T00:49:23.149Z,7.89
2023-05-02T00:51:50.090Z,7.84
2023-05-02T00:54:18.292Z,7.81
2023-05-02T00:56:45.305Z,7.77
2023-05-02T00:59:12.177Z,7.72
2023-05-02T01:02:10.589Z,7.68
2023-05-02T01:05:03.831Z,7.60
2023-05-02T01:07:52.512Z,7.55
2023-05-02T01:10:31.554Z,7.53
2023-05-02T01:13:22.156Z,7.50
2023-05-02T01:15:50.853Z,7.51
2023-05-02T01:18:19.403Z,7.50
2023-05-02T01:20:46.948Z,7.43
2023-05-02T01:23:26.217Z,7.37
2023-05-02T01:26:02.451Z,7.33
2023-05-02T01:28:32.459Z,7.31
2023-05-02T01:30:59.284Z,7.29
2023-05-02T01:33:28.779Z,7.30
2023-05-02T01:35:56.096Z,7.30
2023-05-02T01:38:22.981Z,7.27
2023-05-02T01:40:50.637Z,7.24
2023-05-02T01:43:17.680Z,7.22
2023-05-02T01:45:45.699Z,7.20
2023-05-02T01:48:12.740Z,7.12
2023-05-02T01:50:39.614Z,7.01
2023-05-02T01:53:06.433Z,6.92
2023-05-02T01:55:33.854Z,6.85
2023-05-02T01:58:01.300Z,6.78
2023-05-02T02:00:28.249Z,6.73
2023-05-02T02:02:56.219Z,6.69
2023-05-02T02:05:23.373Z,6.68
2023-05-02T02:07:50.323Z,6.69
2023-05-02T02:10:18.099Z,6.67
2023-05-02T02:13:00.585Z,6.59
2023-05-02T02:15:28.657Z,6.47
2023-05-02T02:17:59.636Z,6.38
2023-05-02T02:20:30.021Z,6.32
2023-05-02T02:22:56.934Z,6.29
2023-05-02T02:25:24.381Z,6.24
2023-05-02T02:27:51.343Z,6.20
2023-05-02T02:30:18.247Z,6.18
2023-05-02T02:32:45.177Z,6.19
2023-05-02T02:35:12.245Z,6.21
2023-05-02T02:38:00.969Z,6.22
2023-05-02T02:40:49.930Z,6.21
2023-05-02T02:44:01.511Z,6.16
2023-05-02T02:46:49.531Z,6.06
2023-05-02T02:49:34.736Z,5.99
2023-05-02T02:52:13.759Z,5.98
2023-05-02T02:54:50.811Z,5.98
2023-05-02T02:57:29.051Z,6.01
2023-05-02T03:00:09.488Z,6.06
2023-05-02T03:02:37.333Z,6.11
2023-05-02T03:05:05.248Z,6.14
2023-05-02T03:07:32.743Z,6.19
2023-05-02T03:10:03.540Z,6.25
2023-05-02T03:12:31.853Z,6.27
2023-05-02T03:15:22.396Z,6.24
2023-05-02T03:17:49.593Z,6.23
2023-05-02T03:20:17.082Z,6.25
2023-05-02T03:22:44.169Z,6.28
2023-05-02T03:25:11.138Z,6.29
2023-05-02T03:27:38.715Z,6.29
2023-05-02T03:30:09.741Z,6.32
2023-05-02T03:32:37.902Z,6.34
2023-05-02T03:35:06.289Z,6.36
2023-05-02T03:37:35.451Z,6.41
2023-05-02T03:40:03.332Z,6.50
2023-05-02T03:42:30.535Z,6.58
2023-05-02T03:44:58.364Z,6.68
2023-05-02T03:47:26.564Z,6.76
2023-05-02T03:49:53.989Z,6.80
2023-05-02T03:52:21.242Z,6.84
2023-05-02T03:54:51.110Z,6.90
2023-05-02T03:57:18.996Z,6.96
2023-05-02T03:59:46.285Z,7.04
2023-05-02T04:02:16.666Z,7.13
2023-05-02T04:04:47.698Z,7.23
2023-05-02T04:07:19.676Z,7.35
2023-05-02T04:09:52.041Z,7.50
2023-05-02T04:12:19.189Z,7.65
2023-05-02T04:14:48.736Z,7.81
2023-05-02T04:17:17.023Z,7.98
2023-05-02T04:19:49.698Z,8.19
2023-05-02T04:22:17.643Z,8.37
2023-05-02T04:24:49.999Z,8.57
2023-05-02T04:27:17.086Z,8.75
2023-05-02T04:29:44.446Z,8.93
2023-05-02T04:32:13.229Z,9.12
2023-05-02T04:34:40.408Z,9.29
2023-05-02T04:37:07.537Z,9.45
2023-05-02T04:39:37.019Z,9.62
2023-05-02T04:42:12.227Z,9.81
2023-05-02T04:44:46.380Z,10.00
2023-05-02T04:47:13.954Z,10.18
2023-05-02T04:49:41.194Z,10.36
2023-05-02T04:52:08.447Z,10.52
2023-05-02T04:54:36.142Z,10.67
2023-05-02T04:57:03.940Z,10.80
2023-05-02T04:59:33.372Z,10.93
2023-05-02T05:02:03.155Z,11.07
2023-05-02T05:04:36.858Z,11.19
2023-05-02T05:07:04.546Z,11.29
2023-05-02T05:09:32.087Z,11.41
2023-05-02T05:11:58.993Z,11.54
2023-05-02T05:14:26.358Z,11.65
2023-05-02T05:16:54.740Z,11.77
2023-05-02T05:19:22.287Z,11.88
2023-05-02T05:21:50.201Z,11.98
2023-05-02T05:24:19.622Z,12.10
2023-05-02T05:26:47.388Z,12.21
2023-05-02T05:29:14.506Z,12.32
2023-05-02T05:31:42.679Z,12.43
2023-05-02T05:34:10.850Z,12.53
2023-05-02T05:36:40.314Z,12.65
2023-05-02T05:39:07.532Z,12.76
2023-05-02T05:41:35.926Z,12.86
2023-05-02T05:48:53.403Z,13.15
2023-05-02T05:56:13.344Z,13.41
2023-05-02T05:58:50.222Z,13.51
2023-05-02T06:01:18.997Z,13.61
2023-05-02T06:03:51.903Z,13.69
2023-05-02T06:06:25.224Z,13.76
2023-05-02T06:08:55.182Z,13.85
2023-05-02T06:11:25.004Z,13.95
2023-05-02T06:13:53.850Z,14.02
2023-05-02T06:16:22.574Z,14.07
2023-05-02T06:18:53.201Z,14.13
2023-05-02T06:21:21.921Z,14.20
2023-05-02T06:23:50.188Z,14.29
2023-05-02T06:26:20.210Z,14.38
2023-05-02T06:28:48.069Z,14.50
2023-05-02T06:31:17.123Z,14.60
2023-05-02T06:33:46.011Z,14.69
2023-05-02T06:36:15.549Z,14.76
2023-05-02T06:38:43.264Z,14.79
2023-05-02T06:41:18.902Z,14.82
2023-05-02T06:43:47.829Z,14.89
2023-05-02T06:46:16.845Z,14.97
2023-05-02T06:48:45.572Z,15.08
2023-05-02T06:51:17.021Z,15.19
2023-05-02T06:58:14.107Z,15.42
2023-05-02T07:00:50.683Z,15.50
2023-05-02T07:03:20.909Z,15.63
2023-05-02T07:05:50.909Z,15.78
2023-05-02T07:08:22.676Z,15.91
2023-05-02T07:10:52.819Z,16.00
2023-05-02T07:13:21.930Z,16.08
2023-05-02T07:15:50.511Z,16.20
2023-05-02T07:23:09.179Z,16.53
2023-05-02T07:25:36.859Z,16.64
2023-05-02T07:28:03.990Z,16.72
2023-05-02T07:30:31.078Z,16.79
2023-05-02T07:32:58.046Z,16.91
2023-05-02T07:35:25.354Z,17.01
2023-05-02T07:37:52.370Z,17.13
2023-05-02T07:40:19.285Z,17.17
2023-05-02T07:42:46.836Z,17.15
2023-05-02T07:45:13.794Z,17.16
2023-05-02T07:47:41.907Z,17.20
2023-05-02T07:50:09.307Z,17.26
2023-05-02T07:52:36.160Z,17.33
2023-05-02T07:55:03.185Z,17.43
2023-05-02T07:57:30.009Z,17.56
2023-05-02T08:04:48.512Z,17.68
2023-05-02T08:07:17.275Z,17.71
2023-05-02T08:09:45.769Z,17.78
2023-05-02T08:12:13.113Z,17.82
2023-05-02T08:14:40.085Z,17.88
2023-05-02T08:17:08.245Z,17.96
2023-05-02T08:19:35.869Z,18.01
2023-05-02T08:22:03.092Z,18.10
2023-05-02T08:24:31.346Z,18.18
2023-05-02T08:26:58.558Z,18.31
2023-05-02T08:29:26.037Z,18.47
2023-05-02T08:31:52.973Z,18.57
2023-05-02T08:34:20.316Z,18.69
2023-05-02T08:36:47.504Z,18.81
2023-05-02T08:39:14.942Z,18.92
2023-05-02T08:41:41.784Z,18.98
2023-05-02T08:48:44.260Z,19.16
2023-05-02T08:51:15.090Z,19.22
2023-05-02T08:53:41.929Z,19.31
2023-05-02T08:56:09.388Z,19.38
2023-05-02T08:58:37.079Z,19.47
2023-05-02T09:01:09.408Z,19.55
2023-05-02T09:03:37.106Z,19.66
2023-05-02T09:06:15.327Z,19.80
2023-05-02T09:08:43.121Z,19.96
2023-05-02T09:16:01.444Z,20.15
2023-05-02T09:18:29.258Z,20.16
2023-05-02T09:25:37.431Z,20.32
2023-05-02T09:28:04.400Z,20.43
2023-05-02T09:30:31.619Z,20.50
2023-05-02T09:32:58.562Z,20.64
2023-05-02T09:35:26.089Z,20.68
2023-05-02T09:42:36.387Z,20.95
2023-05-02T09:45:04.131Z,21.08
2023-05-02T09:47:31.174Z,21.21
2023-05-02T09:54:38.632Z,21.56
2023-05-02T09:57:07.282Z,21.65
2023-05-02T09:59:34.310Z,21.74
2023-05-02T10:02:05.257Z,21.85
2023-05-02T10:04:33.934Z,22.04
2023-05-02T10:07:02.352Z,22.28
2023-05-02T10:09:29.729Z,22.48
2023-05-02T10:11:56.859Z,22.64
2023-05-02T10:14:28.613Z,22.77
2023-05-02T10:17:05.949Z,22.85
2023-05-02T10:23:56.620Z,22.82
2023-05-02T10:26:23.629Z,22.87
2023-05-02T10:28:51.074Z,22.94
2023-05-02T10:31:18.515Z,23.12
2023-05-02T10:33:45.473Z,23.34
2023-05-02T10:36:15.975Z,23.55
2023-05-02T10:38:43.925Z,23.69
2023-05-02T10:41:13.915Z,23.85
2023-05-02T10:43:40.838Z,24.04
2023-05-02T10:46:33.296Z,24.16
2023-05-02T10:49:01.750Z,24.32
2023-05-02T10:51:32.143Z,24.45
2023-05-02T10:54:18.708Z,24.54
2023-05-02T10:57:15.092Z,24.65
2023-05-02T10:59:42.761Z,24.69
2023-05-02T11:02:28.158Z,24.69
2023-05-02T11:05:08.156Z,24.80
2023-05-02T11:07:36.057Z,24.89
2023-05-02T11:10:20.413Z,25.00
2023-05-02T11:12:49.043Z,25.18
2023-05-02T11:15:38.575Z,25.38
2023-05-02T11:18:12.955Z,25.59
2023-05-02T11:20:44.144Z,25.79
2023-05-02T11:23:15.472Z,25.93
2023-05-02T11:25:44.027Z,25.95
2023-05-02T11:28:48.149Z,25.98
2023-05-02T11:35:49.934Z,25.62
2023-05-02T11:38:20.554Z,25.47
2023-05-02T11:40:56.888Z,25.45
2023-05-02T11:43:30.710Z,25.51
2023-05-02T11:46:01.977Z,25.61
2023-05-02T11:48:32.582Z,25.57
2023-05-02T11:51:07.955Z,25.47
2023-05-02T11:53:40.988Z,25.54
2023-05-02T11:56:10.124Z,25.62
2023-05-02T11:58:40.318Z,25.75
2023-05-02T12:01:16.163Z,25.83
2023-05-02T12:03:49.102Z,25.64
2023-05-02T12:06:21.492Z,25.56
2023-05-02T12:08:56.002Z,25.50
2023-05-02T12:11:26.321Z,25.61
2023-05-02T12:13:56.600Z,25.83
2023-05-02T12:16:26.074Z,26.07
2023-05-02T12:18:59.008Z,26.22
2023-05-02T12:21:35.820Z,26.20
2023-05-02T12:24:05.602Z,26.19
2023-05-02T12:26:35.888Z,26.22
2023-05-02T12:29:07.985Z,26.19
2023-05-02T12:31:39.098Z,26.22
2023-05-02T12:34:09.226Z,26.27
2023-05-02T12:43:03.986Z,26.58
2023-05-02T12:45:34.060Z,26.64
2023-05-02T12:48:02.355Z,26.62
2023-05-02T12:50:37.252Z,26.66
2023-05-02T12:53:04.669Z,26.64
2023-05-02T12:55:32.479Z,26.65
2023-05-02T12:58:03.485Z,26.81
2023-05-02T13:00:38.538Z,27.04
2023-05-02T13:03:05.645Z,27.15
2023-05-02T13:05:32.781Z,27.13
2023-05-02T13:07:59.912Z,27.10
2023-05-02T13:10:27.878Z,27.15
2023-05-02T13:12:54.937Z,27.25
2023-05-02T13:15:22.053Z,27.30
2023-05-02T13:17:51.054Z,27.28
2023-05-02T13:20:18.998Z,27.24
2023-05-02T13:22:45.924Z,27.15
2023-05-02T13:25:12.819Z,27.04
2023-05-02T13:27:41.322Z,26.87
2023-05-02T13:30:09.974Z,26.68
2023-05-02T13:32:37.636Z,26.63
2023-05-02T13:35:05.917Z,26.73
2023-05-02T13:37:32.824Z,26.66
2023-05-02T13:39:59.856Z,26.58
2023-05-02T13:42:27.282Z,26.62
2023-05-02T13:44:54.222Z,26.83
2023-05-02T13:47:21.829Z,27.06
2023-05-02T13:49:48.865Z,27.25
2023-05-02T13:52:16.227Z,27.40
2023-05-02T13:54:43.056Z,27.42
2023-05-02T13:57:09.893Z,27.28
2023-05-02T13:59:36.749Z,27.27
2023-05-02T14:02:03.613Z,27.37
2023-05-02T14:04:30.563Z,27.47
2023-05-02T14:06:57.469Z,27.45
2023-05-02T14:09:24.479Z,27.45
2023-05-02T14:11:51.449Z,27.49
2023-05-02T14:14:18.493Z,27.56
2023-05-02T14:16:45.345Z,27.64
2023-05-02T14:19:12.317Z,27.74
2023-05-02T14:21:39.250Z,27.75
2023-05-02T14:24:06.575Z,27.50
2023-05-02T14:26:33.436Z,27.28
2023-05-02T14:29:00.856Z,27.13
2023-05-02T14:31:27.968Z,26.89
2023-05-02T14:33:55.004Z,26.73
2023-05-02T14:36:21.911Z,26.62
2023-05-02T14:38:48.805Z,26.50
2023-05-02T14:41:15.770Z,26.44
2023-05-02T14:43:42.730Z,26.32
2023-05-02T14:46:09.559Z,26.15
2023-05-02T14:48:36.535Z,25.84
2023-05-02T14:51:04.528Z,25.76
2023-05-02T14:53:31.857Z,25.66
2023-05-02T14:55:58.806Z,25.65
2023-05-02T14:58:25.773Z,25.73
2023-05-02T15:00:52.778Z,25.81
2023-05-02T15:03:20.036Z,25.93
2023-05-02T15:05:47.192Z,25.90
2023-05-02T15:08:14.274Z,25.81
2023-05-02T15:10:41.285Z,25.69
2023-05-02T15:13:09.077Z,25.70
2023-05-02T15:15:36.311Z,25.72
2023-05-02T15:18:03.776Z,25.65
2023-05-02T15:20:30.742Z,25.53
2023-05-02T15:23:03.383Z,25.40
2023-05-02T15:25:31.062Z,25.31
2023-05-02T15:27:58.034Z,25.19
2023-05-02T15:30:25.616Z,25.10
2023-05-02T15:32:52.609Z,25.00
2023-05-02T15:35:19.765Z,24.91
2023-05-02T15:37:46.712Z,24.78
2023-05-02T15:40:14.653Z,24.67
2023-05-02T15:42:42.031Z,24.56
2023-05-02T15:45:11.669Z,24.43
2023-05-02T15:47:38.536Z,24.31
2023-05-02T15:50:07.480Z,24.09
2023-05-02T15:52:34.521Z,23.87
2023-05-02T15:55:01.874Z,23.67
2023-05-02T15:57:28.821Z,23.45
2023-05-02T15:59:56.086Z,23.28
2023-05-02T16:02:23.223Z,23.17
2023-05-02T16:04:50.081Z,23.04
2023-05-02T16:07:16.973Z,22.93
2023-05-02T16:09:43.845Z,22.82
2023-05-02T16:12:11.265Z,22.71
2023-05-02T16:14:38.182Z,22.51
2023-05-02T16:17:05.140Z,22.26
2023-05-02T16:19:32.074Z,21.98
2023-05-02T16:21:59.033Z,21.83
2023-05-02T16:24:25.933Z,21.59
2023-05-02T16:26:52.983Z,21.39
2023-05-02T16:29:19.980Z,21.26
2023-05-02T16:31:46.846Z,21.12
2023-05-02T16:34:13.849Z,21.00
2023-05-02T16:36:40.757Z,20.86
2023-05-02T16:39:07.715Z,20.71
2023-05-02T16:41:36.214Z,20.58
2023-05-02T16:44:03.253Z,20.47
2023-05-02T16:46:31.827Z,20.38
2023-05-02T16:48:59.082Z,20.28
2023-05-02T16:51:25.975Z,20.19
2023-05-02T16:53:52.748Z,20.09
2023-05-02T16:56:19.919Z,19.98
2023-05-02T16:58:46.976Z,19.88
2023-05-02T17:01:13.840Z,19.79
2023-05-02T17:03:41.663Z,19.69
2023-05-02T17:06:08.764Z,19.59
2023-05-02T17:08:35.812Z,19.48
2023-05-02T17:11:02.701Z,19.36
2023-05-02T17:13:29.968Z,19.23
2023-05-02T17:15:57.709Z,19.10
2023-05-02T17:18:26.642Z,19.03
2023-05-02T17:20:54.905Z,18.94
2023-05-02T17:23:22.491Z,18.83
2023-05-02T17:25:51.747Z,18.72
2023-05-02T17:28:20.160Z,18.61
2023-05-02T17:30:47.869Z,18.48
2023-05-02T17:33:14.854Z,18.36
2023-05-02T17:35:42.452Z,18.23
2023-05-02T17:38:09.457Z,18.08
2023-05-02T17:40:38.139Z,17.96
2023-05-02T17:43:05.860Z,17.88
2023-05-02T17:45:32.999Z,17.80
2023-05-02T17:48:00.872Z,17.75
2023-05-02T17:50:29.089Z,17.71
2023-05-02T17:52:56.258Z,17.68
2023-05-02T17:55:23.194Z,17.63
2023-05-02T17:57:50.090Z,17.58
2023-05-02T18:00:17.113Z,17.52
2023-05-02T18:02:44.213Z,17.46
2023-05-02T18:05:11.247Z,17.40
2023-05-02T18:07:38.016Z,17.33
2023-05-02T18:10:06.875Z,17.26
2023-05-02T18:12:33.808Z,17.17
2023-05-02T18:15:02.216Z,17.13
2023-05-02T18:17:29.574Z,17.07
2023-05-02T18:19:56.634Z,17.03
2023-05-02T18:22:23.589Z,16.99
2023-05-02T18:24:50.663Z,16.96
2023-05-02T18:27:17.864Z,16.93
2023-05-02T18:29:44.779Z,16.91
2023-05-02T18:32:11.610Z,16.85
2023-05-02T18:34:39.181Z,16.81
2023-05-02T18:37:07.170Z,16.76
2023-05-02T18:39:34.425Z,16.74
2023-05-02T18:42:04.904Z,16.70
2023-05-02T18:44:31.853Z,16.66
2023-05-02T18:46:59.094Z,16.61
2023-05-02T18:49:26.446Z,16.53
2023-05-02T18:51:54.576Z,16.46
2023-05-02T18:54:23.529Z,16.42
2023-05-02T18:56:50.773Z,16.39
2023-05-02T18:59:19.038Z,16.35
2023-05-02T19:01:48.492Z,16.33
2023-05-02T19:04:15.467Z,16.28
2023-05-02T19:06:42.504Z,16.22
2023-05-02T19:09:09.778Z,16.17
2023-05-02T19:11:36.788Z,16.14
2023-05-02T19:14:03.835Z,16.12
2023-05-02T19:16:31.583Z,16.07
2023-05-02T19:18:58.709Z,16.04
2023-05-02T19:21:26.052Z,16.00
2023-05-02T19:23:53.018Z,15.96
2023-05-02T19:26:20.258Z,15.92
2023-05-02T19:28:47.193Z,15.89
2023-05-02T19:31:16.007Z,15.87
2023-05-02T19:33:51.792Z,15.85
2023-05-02T19:36:19.692Z,15.83
2023-05-02T19:38:58.451Z,15.79
2023-05-02T19:41:25.895Z,15.76
2023-05-02T19:43:52.950Z,15.73
2023-05-02T19:46:20.022Z,15.69
2023-05-02T19:48:46.916Z,15.64
2023-05-02T19:51:14.172Z,15.61
2023-05-02T19:53:40.975Z,15.60
2023-05-02T19:56:08.465Z,15.56
2023-05-02T19:58:35.501Z,15.52
2023-05-02T20:01:02.592Z,15.51
2023-05-02T20:03:29.689Z,15.50
2023-05-02T20:05:58.689Z,15.47
2023-05-02T20:08:28.194Z,15.45
2023-05-02T20:10:56.106Z,15.43
2023-05-02T20:13:22.995Z,15.43
2023-05-02T20:15:51.088Z,15.42
2023-05-02T20:18:18.144Z,15.41
2023-05-02T20:20:45.798Z,15.39
2023-05-02T20:23:13.613Z,15.39
2023-05-02T20:25:41.910Z,15.38
2023-05-02T20:28:10.028Z,15.38
2023-05-02T20:30:39.176Z,15.37
2023-05-02T20:33:14.851Z,15.33
2023-05-02T20:35:43.558Z,15.29
2023-05-02T20:38:11.236Z,15.25
2023-05-02T20:40:40.114Z,15.23
2023-05-02T20:43:07.565Z,15.19
2023-05-02T20:45:34.379Z,15.15
2023-05-02T20:48:01.216Z,15.12
2023-05-02T20:50:28.805Z,15.13
2023-05-02T20:52:55.859Z,15.10
2023-05-02T20:55:23.134Z,15.04
2023-05-02T20:57:53.593Z,15.00
2023-05-02T21:00:23.754Z,14.97
2023-05-02T21:02:50.785Z,14.92
2023-05-02T21:05:18.059Z,14.88
2023-05-02T21:07:45.106Z,14.85
2023-05-02T21:10:12.389Z,14.80
2023-05-02T21:12:39.805Z,14.76
2023-05-02T21:15:08.060Z,14.72
2023-05-02T21:17:35.057Z,14.70
2023-05-02T21:20:02.417Z,14.67
2023-05-02T21:22:29.852Z,14.65
2023-05-02T21:24:57.109Z,14.63
2023-05-02T21:27:24.431Z,14.62
2023-05-02T21:29:51.522Z,14.60
2023-05-02T21:32:18.443Z,14.59
2023-05-02T21:34:45.880Z,14.57
2023-05-02T21:37:12.814Z,14.54
2023-05-02T21:39:39.573Z,14.53
2023-05-02T21:42:06.853Z,14.52
2023-05-02T21:44:33.796Z,14.49
2023-05-02T21:47:00.736Z,14.46
2023-05-02T21:49:30.185Z,14.42
2023-05-02T21:51:58.452Z,14.37
2023-05-02T21:54:26.012Z,14.35
2023-05-02T21:56:54.156Z,14.32
2023-05-02T21:59:21.459Z,14.30
2023-05-02T22:01:48.609Z,14.28
2023-05-02T22:04:16.523Z,14.27
2023-05-02T22:06:54.919Z,14.24
2023-05-02T22:09:22.528Z,14.21
2023-05-02T22:11:49.448Z,14.18
2023-05-02T22:14:18.510Z,14.15
2023-05-02T22:16:46.420Z,14.12
2023-05-02T22:19:16.312Z,14.09
2023-05-02T22:21:44.425Z,14.07
2023-05-02T22:24:11.644Z,14.02
2023-05-02T22:26:38.741Z,14.01
2023-05-02T22:29:05.663Z,13.97
2023-05-02T22:31:32.621Z,13.92
2023-05-02T22:33:59.657Z,13.83
2023-05-02T22:36:27.889Z,13.78
2023-05-02T22:38:54.765Z,13.70
2023-05-02T22:41:21.607Z,13.62
2023-05-02T22:43:48.731Z,13.52
2023-05-02T22:46:15.632Z,13.44
2023-05-02T22:48:42.495Z,13.36
2023-05-02T22:51:09.499Z,13.28
2023-05-02T22:53:36.422Z,13.20
2023-05-02T22:56:03.604Z,13.11
2023-05-02T22:58:30.432Z,13.03
2023-05-02T23:00:57.355Z,12.95
2023-05-02T23:03:24.347Z,12.87
2023-05-02T23:05:51.784Z,12.82
2023-05-02T23:08:18.700Z,12.78
2023-05-02T23:10:46.016Z,12.71
2023-05-02T23:13:12.795Z,12.63
2023-05-02T23:15:40.213Z,12.56
2023-05-02T23:18:07.236Z,12.52
2023-05-02T23:20:34.131Z,12.45
2023-05-02T23:23:00.937Z,12.39
2023-05-02T23:25:27.902Z,12.36
2023-05-02T23:27:55.054Z,12.32
2023-05-02T23:30:23.771Z,12.26
2023-05-02T23:32:51.835Z,12.21
2023-05-02T23:35:18.892Z,12.17
2023-05-02T23:37:46.750Z,12.08
2023-05-02T23:40:14.149Z,11.96
2023-05-02T23:42:43.946Z,11.87
2023-05-02T23:45:13.931Z,11.80
2023-05-02T23:47:40.820Z,11.70
2023-05-02T23:50:08.702Z,11.64
2023-05-02T23:52:36.025Z,11.57
2023-05-02T23:55:03.379Z,11.52
2023-05-02T23:57:31.034Z,11.48
2023-05-02T23:59:59.154Z,11.42
